createdAt,value
2023-02-09T00:01:13.997Z,63.42
2023-02-09T00:03:42.478Z,62.22
2023-02-09T00:06:11.099Z,60.70
2023-02-09T00:08:39.306Z,61.78
2023-02-09T00:11:08.585Z,63.50
2023-02-09T00:13:37.280Z,64.80
2023-02-09T00:16:05.793Z,62.10
2023-02-09T00:18:34.351Z,62.45
2023-02-09T00:21:03.405Z,61.97
2023-02-09T00:23:32.732Z,65.13
2023-02-09T00:26:00.980Z,67.68
2023-02-09T00:28:29.312Z,66.50
2023-02-09T00:30:59.059Z,65.40
2023-02-09T00:33:27.440Z,69.35
2023-02-09T00:35:58.288Z,65.35
2023-02-09T00:38:26.497Z,65.88
2023-02-09T00:40:54.613Z,67.20
2023-02-09T00:43:22.790Z,64.43
2023-02-09T00:45:50.985Z,69.15
2023-02-09T00:48:20.773Z,68.22
2023-02-09T00:50:49.080Z,67.43
2023-02-09T00:53:17.264Z,65.40
2023-02-09T00:55:45.486Z,64.35
2023-02-09T00:58:13.738Z,66.30
2023-02-09T01:00:42.431Z,68.20
2023-02-09T01:03:10.721Z,65.75
2023-02-09T01:05:41.557Z,64.93
2023-02-09T01:08:10.116Z,64.28
2023-02-09T01:10:39.216Z,65.72
2023-02-09T01:13:07.925Z,66.45
2023-02-09T01:15:36.136Z,63.60
2023-02-09T01:18:04.362Z,64.68
2023-02-09T01:20:32.561Z,63.03
2023-02-09T01:23:02.720Z,65.10
2023-02-09T01:25:31.811Z,62.05
2023-02-09T01:28:00.037Z,63.38
2023-02-09T01:30:28.517Z,60.88
2023-02-09T01:32:56.645Z,61.10
2023-02-09T01:35:24.894Z,62.30
2023-02-09T01:37:53.057Z,59.88
2023-02-09T01:40:22.730Z,59.65
2023-02-09T01:42:50.851Z,59.28
2023-02-09T01:45:26.143Z,58.13
2023-02-09T01:47:57.706Z,59.67
2023-02-09T01:50:26.329Z,57.70
2023-02-09T01:52:54.563Z,58.13
2023-02-09T01:55:25.582Z,57.67
2023-02-09T01:57:55.408Z,58.90
2023-02-09T02:00:23.924Z,54.97
2023-02-09T02:02:54.355Z,57.58
2023-02-09T02:05:22.773Z,54.45
2023-02-09T02:07:53.292Z,55.50
2023-02-09T02:10:21.534Z,53.80
2023-02-09T02:12:51.091Z,54.30
2023-02-09T02:15:19.507Z,52.70
2023-02-09T02:17:54.336Z,53.92
2023-02-09T02:20:40.406Z,51.42
2023-02-09T02:23:11.668Z,50.63
2023-02-09T02:26:18.648Z,50.88
2023-02-09T02:28:56.370Z,49.78
2023-02-09T02:32:00.383Z,50.03
2023-02-09T02:34:32.032Z,47.90
2023-02-09T02:37:02.864Z,48.42
2023-02-09T02:39:35.049Z,48.50
2023-02-09T02:42:21.439Z,47.97
2023-02-09T02:44:53.448Z,46.58
2023-02-09T02:47:23.116Z,46.13
2023-02-09T02:49:52.778Z,44.33
2023-02-09T02:52:20.944Z,46.08
2023-02-09T02:54:50.733Z,44.30
2023-02-09T02:57:20.108Z,44.58
2023-02-09T02:59:49.912Z,45.03
2023-02-09T03:02:20.184Z,42.83
2023-02-09T03:04:50.113Z,44.10
2023-02-09T03:07:18.601Z,42.90
2023-02-09T03:09:50.861Z,40.90
2023-02-09T03:12:24.519Z,41.85
2023-02-09T03:15:03.968Z,41.33
2023-02-09T03:17:42.659Z,40.63
2023-02-09T03:20:15.376Z,39.30
2023-02-09T03:22:44.512Z,40.10
2023-02-09T03:25:15.386Z,38.85
2023-02-09T03:27:46.365Z,37.67
2023-02-09T03:30:15.778Z,39.50
2023-02-09T03:32:44.495Z,38.13
2023-02-09T03:35:15.276Z,37.45
2023-02-09T03:37:43.469Z,37.17
2023-02-09T03:40:12.178Z,36.63
2023-02-09T03:42:40.404Z,35.97
2023-02-09T03:45:09.189Z,35.85
2023-02-09T03:47:37.419Z,35.72
2023-02-09T03:50:06.895Z,35.10
2023-02-09T03:52:36.529Z,34.67
2023-02-09T03:55:05.407Z,33.38
2023-02-09T03:57:33.657Z,32.88
2023-02-09T04:00:02.229Z,32.65
2023-02-09T04:02:40.068Z,31.08
2023-02-09T04:05:08.745Z,31.88
2023-02-09T04:07:38.521Z,32.33
2023-02-09T04:10:07.757Z,31.95
2023-02-09T04:12:35.876Z,31.38
2023-02-09T04:15:04.037Z,31.40
2023-02-09T04:17:32.271Z,28.20
2023-02-09T04:20:00.419Z,29.50
2023-02-09T04:22:28.586Z,29.08
2023-02-09T04:24:58.365Z,28.23
2023-02-09T04:27:27.249Z,28.90
2023-02-09T04:29:55.668Z,28.00
2023-02-09T04:32:24.001Z,29.45
2023-02-09T04:34:52.267Z,28.00
2023-02-09T04:37:20.424Z,28.20
2023-02-09T04:39:48.597Z,27.58
2023-02-09T04:42:18.301Z,27.23
2023-02-09T04:44:46.535Z,27.35
2023-02-09T04:47:14.762Z,26.35
2023-02-09T04:49:44.626Z,26.45
2023-02-09T04:52:12.866Z,26.20
2023-02-09T04:54:41.108Z,25.40
2023-02-09T04:57:26.339Z,23.52
2023-02-09T04:59:56.005Z,24.55
2023-02-09T05:02:24.257Z,22.88
2023-02-09T05:04:52.432Z,22.08
2023-02-09T05:07:20.626Z,22.40
2023-02-09T05:09:48.799Z,20.60
2023-02-09T05:12:17.005Z,23.70
2023-02-09T05:14:45.066Z,22.70
2023-02-09T05:17:14.804Z,24.27
2023-02-09T05:19:42.985Z,24.98
2023-02-09T05:22:11.438Z,24.42
2023-02-09T05:24:39.576Z,32.35
2023-02-09T05:27:07.797Z,37.92
2023-02-09T05:29:35.969Z,42.42
2023-02-09T05:32:04.265Z,42.30
2023-02-09T05:34:33.969Z,44.47
2023-02-09T05:37:02.225Z,46.38
2023-02-09T05:39:30.376Z,51.17
2023-02-09T05:42:16.443Z,43.92
2023-02-09T05:44:44.948Z,49.42
2023-02-09T05:47:13.720Z,50.72
2023-02-09T05:49:43.364Z,46.45
2023-02-09T05:52:29.268Z,46.58
2023-02-09T05:54:57.556Z,54.17
2023-02-09T05:57:25.849Z,61.50
2023-02-09T05:59:54.061Z,52.33
2023-02-09T06:02:22.214Z,55.95
2023-02-09T06:04:51.952Z,63.55
2023-02-09T06:07:20.229Z,61.05
2023-02-09T06:09:48.413Z,62.80
2023-02-09T06:12:16.588Z,66.90
2023-02-09T06:14:44.833Z,69.97
2023-02-09T06:17:13.022Z,66.95
2023-02-09T06:19:41.294Z,69.30
2023-02-09T06:22:10.832Z,67.32
2023-02-09T06:24:38.970Z,49.10
2023-02-09T06:27:07.313Z,50.03
2023-02-09T06:29:35.496Z,59.58
2023-02-09T06:32:04.012Z,62.40
2023-02-09T06:34:32.306Z,66.28
2023-02-09T06:37:00.532Z,69.20
2023-02-09T06:39:30.702Z,77.53
2023-02-09T06:41:58.945Z,65.25
2023-02-09T06:44:27.464Z,73.18
2023-02-09T06:46:55.753Z,82.75
2023-02-09T06:49:25.421Z,85.80
2023-02-09T06:51:54.274Z,95.55
2023-02-09T06:54:22.873Z,86.38
2023-02-09T06:56:52.644Z,75.43
2023-02-09T06:59:21.052Z,85.28
2023-02-09T07:01:52.780Z,84.88
2023-02-09T07:04:22.768Z,87.88
2023-02-09T07:06:50.904Z,82.03
2023-02-09T07:09:19.147Z,85.97
2023-02-09T07:11:47.431Z,90.50
2023-02-09T07:14:17.234Z,88.18
2023-02-09T07:16:45.373Z,86.35
2023-02-09T07:19:13.555Z,82.55
2023-02-09T07:21:41.928Z,84.20
2023-02-09T07:24:10.157Z,83.53
2023-02-09T07:26:38.406Z,72.35
2023-02-09T07:29:06.704Z,69.72
2023-02-09T07:31:36.682Z,72.45
2023-02-09T07:34:05.071Z,69.57
2023-02-09T07:36:33.254Z,66.43
2023-02-09T07:39:01.665Z,67.60
2023-02-09T07:41:30.064Z,67.32
2023-02-09T07:43:58.880Z,67.30
2023-02-09T07:46:27.172Z,66.00
2023-02-09T07:48:59.468Z,60.97
2023-02-09T07:51:29.906Z,61.05
2023-02-09T07:53:58.735Z,60.15
2023-02-09T07:56:28.694Z,59.53
2023-02-09T07:58:57.215Z,57.83
2023-02-09T08:01:25.917Z,56.80
2023-02-09T08:03:54.204Z,56.08
2023-02-09T08:06:36.271Z,54.88
2023-02-09T08:09:09.340Z,54.53
2023-02-09T08:11:40.431Z,53.20
2023-02-09T08:14:12.125Z,53.25
2023-02-09T08:16:40.399Z,52.65
2023-02-09T08:19:12.018Z,51.38
2023-02-09T08:21:43.071Z,50.90
2023-02-09T08:24:11.300Z,50.80
2023-02-09T08:26:39.537Z,49.05
2023-02-09T08:29:07.933Z,48.63
2023-02-09T08:31:36.219Z,49.20
2023-02-09T08:34:04.960Z,46.67
2023-02-09T08:36:34.472Z,46.00
2023-02-09T08:39:05.418Z,47.08
2023-02-09T08:41:34.608Z,45.90
2023-02-09T08:44:02.761Z,45.72
2023-02-09T08:46:31.188Z,45.00
2023-02-09T08:48:59.462Z,45.13
2023-02-09T08:51:27.688Z,43.50
2023-02-09T08:53:55.840Z,42.40
2023-02-09T08:56:25.733Z,42.72
2023-02-09T08:58:54.000Z,41.78
2023-02-09T09:01:22.386Z,39.92
2023-02-09T09:03:50.676Z,40.20
2023-02-09T09:06:19.056Z,41.53
2023-02-09T09:08:47.250Z,39.30
2023-02-09T09:11:15.345Z,39.63
2023-02-09T09:13:45.049Z,38.78
2023-02-09T09:16:16.687Z,38.22
2023-02-09T09:18:45.679Z,37.67
2023-02-09T09:21:14.309Z,35.67
2023-02-09T09:23:42.637Z,36.38
2023-02-09T09:26:10.802Z,36.35
2023-02-09T09:28:39.345Z,39.80
2023-02-09T09:31:12.797Z,42.45
2023-02-09T09:33:41.856Z,42.90
2023-02-09T09:36:10.550Z,45.55
2023-02-09T09:38:39.328Z,45.88
2023-02-09T09:41:08.425Z,49.25
2023-02-09T09:43:37.695Z,55.90
2023-02-09T09:46:06.765Z,52.70
2023-02-09T09:48:42.143Z,59.65
2023-02-09T09:51:13.183Z,62.15
2023-02-09T09:53:41.482Z,63.03
2023-02-09T09:56:10.383Z,61.03
2023-02-09T09:58:41.295Z,58.58
2023-02-09T10:01:13.630Z,55.97
2023-02-09T10:03:43.358Z,60.40
2023-02-09T10:06:15.305Z,62.88
2023-02-09T10:08:44.586Z,60.03
2023-02-09T10:11:13.352Z,59.10
2023-02-09T10:13:44.381Z,59.97
2023-02-09T10:16:18.463Z,58.22
2023-02-09T10:18:51.121Z,60.78
2023-02-09T10:21:19.459Z,58.72
2023-02-09T10:23:48.829Z,56.17
2023-02-09T10:26:23.110Z,58.28
2023-02-09T10:28:52.559Z,57.60
2023-02-09T10:31:25.310Z,59.55
2023-02-09T10:33:57.554Z,56.72
2023-02-09T10:36:28.291Z,57.13
2023-02-09T10:39:11.577Z,55.85
2023-02-09T10:41:40.882Z,55.83
2023-02-09T10:44:09.852Z,55.92
2023-02-09T10:46:38.936Z,56.35
2023-02-09T10:49:29.424Z,55.15
2023-02-09T10:52:17.293Z,54.60
2023-02-09T10:54:46.191Z,54.30
2023-02-09T10:57:25.152Z,54.13
2023-02-09T10:59:54.240Z,53.15
2023-02-09T11:02:38.868Z,50.35
2023-02-09T11:05:27.547Z,50.95
2023-02-09T11:07:57.869Z,50.83
2023-02-09T11:10:26.173Z,51.10
2023-02-09T11:12:54.419Z,50.97
2023-02-09T11:15:24.727Z,50.60
2023-02-09T11:17:54.946Z,51.75
2023-02-09T11:20:37.353Z,51.92
2023-02-09T11:23:21.560Z,51.33
2023-02-09T11:25:51.600Z,50.88
2023-02-09T11:28:47.105Z,51.08
2023-02-09T11:31:22.650Z,49.58
2023-02-09T11:33:54.821Z,49.67
2023-02-09T11:36:33.786Z,50.08
2023-02-09T11:39:03.106Z,47.85
2023-02-09T11:41:50.024Z,47.95
2023-02-09T11:44:23.491Z,48.03
2023-02-09T11:46:52.354Z,49.58
2023-02-09T11:49:21.223Z,46.55
2023-02-09T11:51:50.837Z,47.67
2023-02-09T11:54:19.957Z,44.83
2023-02-09T11:56:49.644Z,46.05
2023-02-09T11:59:20.041Z,46.45
2023-02-09T12:01:50.043Z,45.15
2023-02-09T12:04:20.041Z,45.65
2023-02-09T12:06:51.456Z,43.47
2023-02-09T12:09:32.868Z,42.67
2023-02-09T12:12:11.636Z,43.78
2023-02-09T12:14:49.748Z,43.35
2023-02-09T12:17:19.464Z,44.15
2023-02-09T12:19:55.091Z,48.92
2023-02-09T12:22:46.428Z,52.00
2023-02-09T12:25:19.204Z,55.65
2023-02-09T12:28:05.959Z,55.38
2023-02-09T12:31:05.729Z,55.33
2023-02-09T12:33:35.535Z,56.30
2023-02-09T12:36:05.460Z,54.88
2023-02-09T12:38:55.443Z,54.58
2023-02-09T12:41:25.321Z,53.15
2023-02-09T12:43:55.177Z,54.78
2023-02-09T12:46:25.083Z,51.45
2023-02-09T12:49:03.357Z,52.13
2023-02-09T12:52:24.997Z,51.25
2023-02-09T12:54:55.511Z,51.45
2023-02-09T12:57:54.062Z,48.83
2023-02-09T13:00:55.560Z,48.50
2023-02-09T13:03:24.642Z,48.78
2023-02-09T13:05:52.745Z,48.30
2023-02-09T13:08:25.170Z,47.70
2023-02-09T13:10:57.672Z,47.30
2023-02-09T13:13:30.079Z,47.38
2023-02-09T13:16:32.351Z,43.67
2023-02-09T13:19:03.804Z,45.08
2023-02-09T13:21:35.876Z,44.35
2023-02-09T13:24:04.981Z,45.05
2023-02-09T13:26:35.040Z,42.05
2023-02-09T13:29:19.882Z,43.20
2023-02-09T13:31:55.684Z,42.67
2023-02-09T13:34:31.984Z,42.50
2023-02-09T13:37:05.623Z,39.20
2023-02-09T13:39:36.379Z,41.22
2023-02-09T13:42:17.295Z,39.75
2023-02-09T13:44:45.706Z,39.95
2023-02-09T13:47:14.816Z,39.72
2023-02-09T13:49:43.009Z,39.53
2023-02-09T13:52:15.236Z,38.92
2023-02-09T13:54:43.672Z,39.35
2023-02-09T13:57:18.929Z,38.35
2023-02-09T13:59:47.067Z,38.03
2023-02-09T14:02:18.456Z,36.78
2023-02-09T14:04:46.778Z,36.03
2023-02-09T14:07:14.799Z,35.50
2023-02-09T14:09:45.098Z,35.60
2023-02-09T14:12:15.374Z,35.10
2023-02-09T14:15:01.761Z,34.83
2023-02-09T14:17:30.746Z,35.20
2023-02-09T14:19:59.474Z,33.58
2023-02-09T14:22:31.304Z,34.08
2023-02-09T14:24:59.382Z,33.17
2023-02-09T14:27:29.294Z,32.03
2023-02-09T14:29:57.380Z,31.25
2023-02-09T14:32:35.447Z,33.47
2023-02-09T14:35:11.604Z,33.60
2023-02-09T14:37:45.386Z,34.90
2023-02-09T14:40:21.207Z,35.70
2023-02-09T14:43:22.246Z,37.53
2023-02-09T14:45:58.606Z,37.58
2023-02-09T14:48:27.344Z,37.17
2023-02-09T14:50:56.256Z,39.15
2023-02-09T14:53:25.044Z,37.97
2023-02-09T14:55:53.531Z,37.70
2023-02-09T14:58:24.044Z,39.10
2023-02-09T15:00:52.884Z,37.85
2023-02-09T15:03:21.130Z,38.90
2023-02-09T15:05:49.550Z,39.55
2023-02-09T15:08:20.092Z,38.38
2023-02-09T15:10:48.893Z,37.63
2023-02-09T15:13:17.059Z,38.80
2023-02-09T15:15:46.932Z,41.10
2023-02-09T15:18:18.508Z,39.85
2023-02-09T15:20:46.733Z,41.88
2023-02-09T15:23:14.922Z,40.28
2023-02-09T15:25:43.400Z,45.45
2023-02-09T15:28:15.931Z,43.85
2023-02-09T15:30:44.379Z,45.53
2023-02-09T15:33:14.658Z,45.28
2023-02-09T15:35:42.848Z,44.13
2023-02-09T15:38:11.149Z,44.13
2023-02-09T15:40:59.168Z,44.08
2023-02-09T15:43:44.619Z,43.47
2023-02-09T15:46:30.183Z,43.70
2023-02-09T15:48:59.881Z,42.88
2023-02-09T15:51:31.355Z,42.55
2023-02-09T15:54:00.743Z,43.28
2023-02-09T15:56:29.024Z,42.25
2023-02-09T15:59:03.632Z,41.90
2023-02-09T16:01:34.129Z,42.60
2023-02-09T16:04:14.466Z,42.13
2023-02-09T16:06:45.146Z,44.30
2023-02-09T16:09:13.983Z,52.30
2023-02-09T16:11:42.175Z,56.75
2023-02-09T16:14:14.601Z,57.80
2023-02-09T16:16:44.303Z,50.90
2023-02-09T16:19:13.993Z,49.38
2023-02-09T16:21:43.640Z,49.88
2023-02-09T16:24:17.845Z,50.22
2023-02-09T16:26:46.042Z,50.47
2023-02-09T16:29:14.420Z,51.60
2023-02-09T16:31:42.628Z,51.03
2023-02-09T16:34:15.273Z,50.85
2023-02-09T16:36:47.108Z,52.45
2023-02-09T16:39:18.397Z,50.20
2023-02-09T16:41:50.765Z,51.40
2023-02-09T16:44:21.043Z,50.20
2023-02-09T16:46:50.767Z,54.20
2023-02-09T16:49:28.804Z,53.03
2023-02-09T16:51:59.132Z,54.70
2023-02-09T16:54:27.361Z,58.47
2023-02-09T16:56:56.603Z,55.83
2023-02-09T16:59:24.681Z,59.38
2023-02-09T17:01:52.861Z,56.90
2023-02-09T17:04:20.997Z,55.33
2023-02-09T17:06:49.197Z,53.38
2023-02-09T17:09:18.907Z,53.17
2023-02-09T17:11:47.357Z,53.25
2023-02-09T17:14:15.511Z,53.60
2023-02-09T17:16:44.872Z,51.80
2023-02-09T17:19:15.990Z,53.42
2023-02-09T17:21:44.311Z,58.67
2023-02-09T17:24:14.014Z,56.45
2023-02-09T17:26:43.648Z,59.28
2023-02-09T17:29:12.058Z,60.13
2023-02-09T17:31:52.345Z,60.03
2023-02-09T17:34:27.114Z,65.38
2023-02-09T17:36:55.471Z,65.55
2023-02-09T17:39:23.616Z,71.38
2023-02-09T17:41:53.420Z,74.15
2023-02-09T17:44:43.375Z,66.85
2023-02-09T17:47:10.818Z,68.43
2023-02-09T17:49:38.953Z,68.53
2023-02-09T17:52:07.169Z,68.32
2023-02-09T17:54:35.329Z,70.05
2023-02-09T17:57:05.667Z,72.43
2023-02-09T17:59:33.864Z,67.53
2023-02-09T18:02:01.889Z,69.32
2023-02-09T18:04:31.836Z,69.13
2023-02-09T18:07:00.027Z,72.07
2023-02-09T18:09:28.230Z,73.00
2023-02-09T18:11:59.845Z,76.55
2023-02-09T18:14:30.465Z,86.88
2023-02-09T18:16:58.736Z,91.72
2023-02-09T18:19:27.230Z,87.63
2023-02-09T18:21:56.700Z,85.38
2023-02-09T18:24:25.555Z,86.93
2023-02-09T18:26:53.705Z,95.15
2023-02-09T18:29:23.345Z,89.70
2023-02-09T18:31:53.041Z,95.05
2023-02-09T18:34:21.294Z,94.88
2023-02-09T18:36:49.541Z,94.85
2023-02-09T18:39:17.794Z,90.93
2023-02-09T18:41:48.476Z,91.93
2023-02-09T18:44:16.764Z,90.88
2023-02-09T18:46:45.417Z,89.55
2023-02-09T18:49:15.101Z,87.82
2023-02-09T18:51:43.350Z,88.43
2023-02-09T18:54:11.612Z,88.50
2023-02-09T18:56:39.825Z,87.68
2023-02-09T18:59:08.771Z,86.80
2023-02-09T19:01:38.028Z,84.72
2023-02-09T19:04:06.427Z,84.40
2023-02-09T19:06:36.154Z,83.03
2023-02-09T19:09:05.092Z,82.22
2023-02-09T19:11:33.299Z,83.85
2023-02-09T19:14:18.988Z,80.25
2023-02-09T19:16:47.230Z,82.65
2023-02-09T19:19:16.291Z,79.43
2023-02-09T19:21:47.699Z,78.10
2023-02-09T19:24:15.932Z,79.32
2023-02-09T19:26:44.017Z,66.75
2023-02-09T19:29:12.226Z,70.97
2023-02-09T19:31:40.402Z,74.07
2023-02-09T19:34:08.796Z,74.70
2023-02-09T19:36:37.052Z,75.03
2023-02-09T19:39:06.782Z,73.28
2023-02-09T19:41:35.024Z,76.47
2023-02-09T19:44:04.447Z,78.70
2023-02-09T19:46:33.023Z,77.82
2023-02-09T19:49:02.196Z,77.22
2023-02-09T19:51:30.600Z,78.05
2023-02-09T19:53:58.766Z,78.10
2023-02-09T19:56:28.378Z,76.10
2023-02-09T19:58:56.539Z,79.40
2023-02-09T20:01:26.913Z,80.68
2023-02-09T20:03:55.214Z,80.07
2023-02-09T20:06:23.512Z,78.97
2023-02-09T20:08:52.055Z,82.68
2023-02-09T20:11:21.397Z,76.60
2023-02-09T20:13:52.734Z,77.95
2023-02-09T20:16:23.466Z,76.10
2023-02-09T20:18:51.940Z,76.13
2023-02-09T20:21:21.398Z,80.20
2023-02-09T20:23:49.631Z,74.22
2023-02-09T20:26:18.587Z,76.00
2023-02-09T20:28:46.889Z,74.97
2023-02-09T20:31:19.325Z,74.22
2023-02-09T20:33:47.785Z,74.53
2023-02-09T20:36:16.534Z,73.35
2023-02-09T20:38:44.777Z,74.97
2023-02-09T20:41:14.076Z,71.93
2023-02-09T20:43:59.449Z,71.35
2023-02-09T20:46:52.639Z,69.53
2023-02-09T20:49:21.014Z,68.40
2023-02-09T20:51:49.108Z,69.60
2023-02-09T20:54:17.445Z,67.00
2023-02-09T20:56:45.858Z,65.90
2023-02-09T20:59:14.599Z,65.93
2023-02-09T21:01:45.112Z,66.78
2023-02-09T21:04:13.360Z,64.38
2023-02-09T21:06:41.519Z,61.75
2023-02-09T21:09:10.260Z,60.55
2023-02-09T21:11:38.608Z,61.25
2023-02-09T21:14:06.894Z,59.72
2023-02-09T21:16:36.697Z,58.33
2023-02-09T21:19:06.366Z,60.53
2023-02-09T21:21:34.509Z,57.25
2023-02-09T21:24:02.755Z,58.17
2023-02-09T21:26:30.982Z,56.72
2023-02-09T21:28:59.265Z,56.63
2023-02-09T21:31:28.163Z,55.90
2023-02-09T21:33:56.468Z,56.80
2023-02-09T21:36:26.071Z,54.17
2023-02-09T21:38:54.289Z,54.38
2023-02-09T21:41:40.994Z,53.05
2023-02-09T21:44:10.183Z,51.80
2023-02-09T21:46:38.382Z,51.80
2023-02-09T21:49:06.588Z,52.22
2023-02-09T21:51:36.256Z,49.03
2023-02-09T21:54:04.492Z,51.38
2023-02-09T21:56:32.679Z,49.50
2023-02-09T21:59:00.940Z,49.25
2023-02-09T22:01:30.643Z,48.17
2023-02-09T22:03:58.874Z,47.90
2023-02-09T22:06:27.122Z,46.65
2023-02-09T22:08:56.786Z,45.53
2023-02-09T22:11:24.985Z,46.60
2023-02-09T22:13:53.228Z,45.05
2023-02-09T22:16:22.640Z,45.00
2023-02-09T22:18:50.876Z,44.03
2023-02-09T22:21:19.230Z,44.83
2023-02-09T22:23:47.771Z,44.55
2023-02-09T22:26:17.344Z,42.53
2023-02-09T22:28:46.738Z,43.00
2023-02-09T22:31:15.993Z,41.58
2023-02-09T22:33:44.150Z,42.00
2023-02-09T22:36:13.390Z,41.30
2023-02-09T22:38:41.856Z,39.95
2023-02-09T22:41:21.482Z,41.08
2023-02-09T22:43:52.460Z,40.42
2023-02-09T22:46:20.795Z,39.08
2023-02-09T22:48:52.528Z,40.47
2023-02-09T22:51:21.132Z,37.35
2023-02-09T22:53:49.271Z,37.90
2023-02-09T22:56:17.618Z,38.63
2023-02-09T22:58:45.795Z,36.60
2023-02-09T23:01:15.645Z,36.08
2023-02-09T23:03:43.987Z,35.88
2023-02-09T23:06:16.088Z,35.53
2023-02-09T23:08:44.585Z,35.20
2023-02-09T23:11:13.558Z,35.83
2023-02-09T23:13:42.018Z,35.92
2023-02-09T23:16:11.001Z,34.60
2023-02-09T23:18:40.880Z,33.03
2023-02-09T23:21:09.378Z,32.67
2023-02-09T23:23:37.511Z,32.05
2023-02-09T23:26:05.732Z,31.55
2023-02-09T23:28:33.940Z,31.25
2023-02-09T23:31:04.984Z,31.80
2023-02-09T23:33:33.276Z,30.65
2023-02-09T23:36:05.615Z,30.95
2023-02-09T23:38:34.011Z,29.88
2023-02-09T23:41:06.727Z,30.58
2023-02-09T23:43:34.949Z,31.20
2023-02-09T23:46:03.126Z,30.00
2023-02-09T23:48:31.420Z,29.23
2023-02-09T23:51:00.955Z,29.27
2023-02-09T23:53:30.682Z,28.45
2023-02-09T23:56:03.792Z,27.73
2023-02-09T23:58:32.393Z,28.45
